CFG322 LOWI-EDDH
Flight info
| Callsign | CFG322 |
|---|---|
| Flight time | 1h 14m |
| Altitude | 34000 |
| Route | MOGTI3H/26 MOGTI P66 KPT L608 TEDGO/N0450F350 DCT HAREM DCT LOHRE DCT ELNAT/N0449F340 P605 NOLGO NOLGO6A |
| Aircraft | B753/M-SDE3FGHIM3RWXY/LB1 |
Departure
| Time | 2026-05-06 19:22 |
|---|---|
| Airport | Innsbruck Airport (LOWI) |
Arrival
| Time | 2026-05-06 20:36 |
|---|---|
| Airport | Hamburg Helmut Schmidt Airport (EDDH) |
| Time | Latitude | Longitude | Altitude | Speed | Heading |
|---|---|---|---|---|---|
| 2026-05-06 18:40 | 47.25847 | 11.35177 | 1918 ft | 0 kts | 171° |
| 2026-05-06 19:07 | 47.25855 | 11.35175 | 1916 ft | 2 kts | 171° |
| 2026-05-06 19:07 | 47.25870 | 11.35174 | 1916 ft | 2 kts | 194° |
| 2026-05-06 19:08 | 47.25883 | 11.35184 | 1916 ft | 2 kts | 223° |
| 2026-05-06 19:08 | 47.25892 | 11.35202 | 1916 ft | 2 kts | 252° |
| 2026-05-06 19:08 | 47.25893 | 11.35212 | 1916 ft | 1 kts | 264° |
| 2026-05-06 19:08 | 47.25894 | 11.35216 | 1916 ft | 0 kts | 261° |
| 2026-05-06 19:11 | 47.25892 | 11.35199 | 1916 ft | 3 kts | 261° |
| 2026-05-06 19:11 | 47.25888 | 11.35159 | 1916 ft | 4 kts | 261° |
| 2026-05-06 19:12 | 47.25881 | 11.35093 | 1917 ft | 7 kts | 260° |
| 2026-05-06 19:12 | 47.25868 | 11.34980 | 1917 ft | 14 kts | 261° |
| 2026-05-06 19:12 | 47.25850 | 11.34794 | 1918 ft | 21 kts | 261° |
| 2026-05-06 19:12 | 47.25827 | 11.34579 | 1919 ft | 19 kts | 260° |
| 2026-05-06 19:13 | 47.25807 | 11.34390 | 1920 ft | 17 kts | 261° |
| 2026-05-06 19:13 | 47.25789 | 11.34221 | 1921 ft | 15 kts | 261° |
| 2026-05-06 19:13 | 47.25774 | 11.34092 | 1921 ft | 8 kts | 260° |
| 2026-05-06 19:13 | 47.25771 | 11.34037 | 1921 ft | 3 kts | 269° |
| 2026-05-06 19:14 | 47.25772 | 11.34028 | 1921 ft | 0 kts | 270° |
| 2026-05-06 19:16 | 47.25772 | 11.34024 | 1921 ft | 1 kts | 270° |
| 2026-05-06 19:16 | 47.25774 | 11.33990 | 1921 ft | 4 kts | 281° |
| 2026-05-06 19:16 | 47.25785 | 11.33940 | 1922 ft | 5 kts | 291° |
| 2026-05-06 19:16 | 47.25804 | 11.33889 | 1922 ft | 4 kts | 304° |
| 2026-05-06 19:17 | 47.25807 | 11.33883 | 1922 ft | 0 kts | 304° |
| 2026-05-06 19:19 | 47.25809 | 11.33879 | 1921 ft | 2 kts | 304° |
| 2026-05-06 19:19 | 47.25835 | 11.33825 | 1922 ft | 9 kts | 304° |
| 2026-05-06 19:19 | 47.25888 | 11.33716 | 1922 ft | 15 kts | 307° |
| 2026-05-06 19:20 | 47.25930 | 11.33572 | 1923 ft | 14 kts | 266° |
| 2026-05-06 19:20 | 47.25915 | 11.33433 | 1923 ft | 12 kts | 260° |
| 2026-05-06 19:20 | 47.25900 | 11.33293 | 1924 ft | 14 kts | 261° |
| 2026-05-06 19:20 | 47.25862 | 11.33190 | 1925 ft | 9 kts | 223° |
| 2026-05-06 19:21 | 47.25859 | 11.33125 | 1925 ft | 5 kts | 330° |
| 2026-05-06 19:21 | 47.25884 | 11.33149 | 1925 ft | 8 kts | 70° |
| 2026-05-06 19:21 | 47.25908 | 11.33379 | 1925 ft | 51 kts | 83° |
| 2026-05-06 19:21 | 47.26007 | 11.34286 | 1921 ft | 125 kts | 81° |
| 2026-05-06 19:22 | 47.26169 | 11.35794 | 2210 ft | 159 kts | 85° |
| 2026-05-06 19:22 | 47.26311 | 11.37349 | 3032 ft | 157 kts | 85° |
| 2026-05-06 19:22 | 47.26495 | 11.38905 | 3510 ft | 164 kts | 84° |
| 2026-05-06 19:22 | 47.26696 | 11.40655 | 3821 ft | 180 kts | 83° |
| 2026-05-06 19:23 | 47.26912 | 11.42538 | 4133 ft | 200 kts | 84° |
| 2026-05-06 19:23 | 47.27158 | 11.44713 | 4304 ft | 232 kts | 79° |
| 2026-05-06 19:23 | 47.27726 | 11.47027 | 4843 ft | 252 kts | 69° |
| 2026-05-06 19:23 | 47.28436 | 11.49461 | 5424 ft | 268 kts | 70° |
| 2026-05-06 19:24 | 47.28850 | 11.52151 | 6203 ft | 270 kts | 95° |
| 2026-05-06 19:24 | 47.28370 | 11.54749 | 7050 ft | 269 kts | 122° |
| 2026-05-06 19:24 | 47.27084 | 11.56723 | 7830 ft | 272 kts | 152° |
| 2026-05-06 19:24 | 47.25293 | 11.57528 | 8658 ft | 273 kts | 178° |
| 2026-05-06 19:25 | 47.23425 | 11.56988 | 9349 ft | 281 kts | 206° |
| 2026-05-06 19:25 | 47.21925 | 11.55183 | 10161 ft | 285 kts | 233° |
| 2026-05-06 19:25 | 47.21090 | 11.52488 | 10708 ft | 302 kts | 256° |
| 2026-05-06 19:25 | 47.20982 | 11.49289 | 11098 ft | 326 kts | 274° |
| 2026-05-06 19:26 | 47.21343 | 11.45869 | 11505 ft | 345 kts | 277° |
| 2026-05-06 19:26 | 47.21657 | 11.42323 | 11977 ft | 358 kts | 269° |
| 2026-05-06 19:26 | 47.21763 | 11.38661 | 12825 ft | 361 kts | 276° |
| 2026-05-06 19:26 | 47.22458 | 11.35113 | 13628 ft | 369 kts | 292° |
| 2026-05-06 19:27 | 47.23795 | 11.31831 | 14375 ft | 376 kts | 301° |
| 2026-05-06 19:27 | 47.25110 | 11.28475 | 15109 ft | 378 kts | 292° |
| 2026-05-06 19:27 | 47.26202 | 11.24973 | 15803 ft | 381 kts | 289° |
| 2026-05-06 19:27 | 47.27216 | 11.21328 | 15916 ft | 389 kts | 288° |
| 2026-05-06 19:28 | 47.28164 | 11.17666 | 15912 ft | 380 kts | 287° |
| 2026-05-06 19:28 | 47.29068 | 11.14023 | 15921 ft | 379 kts | 286° |
| 2026-05-06 19:28 | 47.29951 | 11.10359 | 15935 ft | 380 kts | 286° |
| 2026-05-06 19:28 | 47.30828 | 11.06654 | 16245 ft | 388 kts | 285° |
| 2026-05-06 19:29 | 47.31699 | 11.02950 | 17319 ft | 385 kts | 285° |
| 2026-05-06 19:29 | 47.32578 | 10.99173 | 18049 ft | 390 kts | 285° |
| 2026-05-06 19:29 | 47.33453 | 10.95398 | 18834 ft | 394 kts | 285° |
| 2026-05-06 19:29 | 47.34354 | 10.91505 | 19597 ft | 397 kts | 284° |
| 2026-05-06 19:30 | 47.35246 | 10.87622 | 20259 ft | 403 kts | 284° |
| 2026-05-06 19:30 | 47.35850 | 10.84997 | 20814 ft | 403 kts | 284° |
| 2026-05-06 19:30 | 47.36746 | 10.81101 | 21552 ft | 406 kts | 284° |
| 2026-05-06 19:30 | 47.37714 | 10.77182 | 22238 ft | 412 kts | 290° |
| 2026-05-06 19:31 | 47.39121 | 10.73419 | 22889 ft | 422 kts | 300° |
| 2026-05-06 19:31 | 47.41009 | 10.70011 | 23532 ft | 432 kts | 310° |
| 2026-05-06 19:31 | 47.45826 | 10.64556 | 24685 ft | 448 kts | 321° |
| 2026-05-06 19:32 | 47.48383 | 10.61966 | 25289 ft | 451 kts | 321° |
| 2026-05-06 19:32 | 47.50974 | 10.59326 | 25821 ft | 455 kts | 320° |
| 2026-05-06 19:32 | 47.53570 | 10.56669 | 26376 ft | 458 kts | 320° |
| 2026-05-06 19:32 | 47.56204 | 10.53967 | 26851 ft | 463 kts | 320° |
| 2026-05-06 19:33 | 47.58865 | 10.51235 | 27467 ft | 464 kts | 320° |
| 2026-05-06 19:33 | 47.61536 | 10.48483 | 27879 ft | 469 kts | 320° |
| 2026-05-06 19:33 | 47.64200 | 10.45735 | 28408 ft | 471 kts | 320° |
| 2026-05-06 19:33 | 47.66877 | 10.42971 | 28811 ft | 476 kts | 320° |
| 2026-05-06 19:34 | 47.69617 | 10.40137 | 29256 ft | 479 kts | 320° |
| 2026-05-06 19:34 | 47.72372 | 10.37286 | 29785 ft | 481 kts | 319° |
| 2026-05-06 19:34 | 47.75116 | 10.34464 | 30102 ft | 487 kts | 319° |
| 2026-05-06 19:34 | 47.77725 | 10.31508 | 30658 ft | 480 kts | 312° |
| 2026-05-06 19:35 | 47.80242 | 10.28300 | 31152 ft | 481 kts | 313° |
| 2026-05-06 19:35 | 47.82782 | 10.25137 | 31712 ft | 479 kts | 313° |
| 2026-05-06 19:35 | 47.85317 | 10.22000 | 32297 ft | 476 kts | 314° |
| 2026-05-06 19:35 | 47.87861 | 10.18862 | 32701 ft | 477 kts | 314° |
| 2026-05-06 19:36 | 47.90416 | 10.15719 | 33155 ft | 476 kts | 314° |
| 2026-05-06 19:36 | 47.92956 | 10.12598 | 33547 ft | 476 kts | 314° |
| 2026-05-06 19:36 | 47.95511 | 10.09457 | 33881 ft | 474 kts | 314° |
| 2026-05-06 19:36 | 47.98010 | 10.06383 | 33889 ft | 475 kts | 314° |
| 2026-05-06 19:37 | 48.03142 | 10.00060 | 33899 ft | 485 kts | 315° |
| 2026-05-06 19:37 | 48.08233 | 9.93779 | 33889 ft | 489 kts | 315° |
| 2026-05-06 19:38 | 48.13372 | 9.87424 | 33881 ft | 486 kts | 315° |
| 2026-05-06 19:38 | 48.18507 | 9.81052 | 33883 ft | 490 kts | 315° |
| 2026-05-06 19:39 | 48.23774 | 9.74503 | 33880 ft | 488 kts | 315° |
| 2026-05-06 19:39 | 48.29015 | 9.67966 | 33877 ft | 488 kts | 315° |
| 2026-05-06 19:40 | 48.34261 | 9.61395 | 33867 ft | 489 kts | 315° |
| 2026-05-06 19:40 | 48.39433 | 9.54785 | 33872 ft | 491 kts | 315° |
| 2026-05-06 19:41 | 48.44599 | 9.48168 | 33871 ft | 490 kts | 315° |
| 2026-05-06 19:41 | 48.49719 | 9.41589 | 33866 ft | 490 kts | 315° |
| 2026-05-06 19:42 | 48.54925 | 9.34905 | 33868 ft | 492 kts | 317° |
| 2026-05-06 19:42 | 48.60694 | 9.29767 | 33884 ft | 501 kts | 335° |
| 2026-05-06 19:43 | 48.67528 | 9.27317 | 33881 ft | 509 kts | 353° |
| 2026-05-06 19:43 | 48.74603 | 9.27818 | 33878 ft | 511 kts | 4° |
| 2026-05-06 19:44 | 48.81630 | 9.28925 | 33864 ft | 510 kts | 4° |
| 2026-05-06 19:44 | 48.88703 | 9.30020 | 33858 ft | 508 kts | 4° |
| 2026-05-06 19:45 | 48.95714 | 9.31104 | 33866 ft | 509 kts | 4° |
| 2026-05-06 19:45 | 49.02772 | 9.32195 | 33861 ft | 508 kts | 4° |
| 2026-05-06 19:46 | 49.09771 | 9.33280 | 33865 ft | 508 kts | 4° |
| 2026-05-06 19:46 | 49.16725 | 9.34360 | 33845 ft | 508 kts | 4° |
| 2026-05-06 19:47 | 49.23776 | 9.35458 | 33851 ft | 508 kts | 4° |
| 2026-05-06 19:47 | 49.30790 | 9.36553 | 33850 ft | 510 kts | 5° |
| 2026-05-06 19:48 | 49.37833 | 9.37657 | 33845 ft | 508 kts | 5° |
| 2026-05-06 19:48 | 49.44880 | 9.38764 | 33839 ft | 509 kts | 5° |
| 2026-05-06 19:49 | 49.51893 | 9.39870 | 33825 ft | 508 kts | 5° |
| 2026-05-06 19:49 | 49.58917 | 9.40980 | 33838 ft | 508 kts | 5° |
| 2026-05-06 19:50 | 49.65995 | 9.42102 | 33827 ft | 509 kts | 5° |
| 2026-05-06 19:50 | 49.73018 | 9.43222 | 33839 ft | 509 kts | 5° |
| 2026-05-06 19:51 | 49.80080 | 9.44350 | 33834 ft | 510 kts | 5° |
| 2026-05-06 19:51 | 49.87158 | 9.45485 | 33823 ft | 510 kts | 5° |
| 2026-05-06 19:52 | 49.94208 | 9.46619 | 33823 ft | 511 kts | 5° |
| 2026-05-06 19:52 | 50.01028 | 9.47719 | 33821 ft | 510 kts | 5° |
| 2026-05-06 19:53 | 50.08027 | 9.49043 | 33814 ft | 510 kts | 6° |
| 2026-05-06 19:53 | 50.14993 | 9.50473 | 33810 ft | 510 kts | 6° |
| 2026-05-06 19:54 | 50.21935 | 9.51887 | 33806 ft | 509 kts | 6° |
| 2026-05-06 19:54 | 50.28851 | 9.53296 | 33809 ft | 509 kts | 6° |
| 2026-05-06 19:55 | 50.35720 | 9.54698 | 33808 ft | 509 kts | 6° |
| 2026-05-06 19:55 | 50.42724 | 9.56130 | 33806 ft | 510 kts | 6° |
| 2026-05-06 19:56 | 50.49734 | 9.57569 | 33814 ft | 509 kts | 6° |
| 2026-05-06 19:56 | 50.56742 | 9.59011 | 33811 ft | 510 kts | 6° |
| 2026-05-06 19:57 | 50.63778 | 9.60463 | 33812 ft | 510 kts | 6° |
| 2026-05-06 19:57 | 50.70835 | 9.61924 | 33810 ft | 510 kts | 6° |
| 2026-05-06 19:58 | 50.77869 | 9.63384 | 33809 ft | 510 kts | 6° |
| 2026-05-06 19:58 | 50.84915 | 9.64852 | 33809 ft | 509 kts | 6° |
| 2026-05-06 19:59 | 50.91899 | 9.66311 | 33807 ft | 511 kts | 6° |
| 2026-05-06 19:59 | 50.98943 | 9.67787 | 33812 ft | 509 kts | 6° |
| 2026-05-06 20:00 | 51.05936 | 9.69256 | 33809 ft | 509 kts | 6° |
| 2026-05-06 20:00 | 51.12457 | 9.70630 | 33803 ft | 509 kts | 6° |
| 2026-05-06 20:01 | 51.19645 | 9.72151 | 33804 ft | 506 kts | 6° |
| 2026-05-06 20:01 | 51.26650 | 9.73636 | 33806 ft | 505 kts | 6° |
| 2026-05-06 20:02 | 51.33615 | 9.75117 | 33805 ft | 506 kts | 6° |
| 2026-05-06 20:02 | 51.40580 | 9.76603 | 33806 ft | 506 kts | 6° |
| 2026-05-06 20:03 | 51.47604 | 9.78107 | 33810 ft | 505 kts | 6° |
| 2026-05-06 20:03 | 51.54372 | 9.79560 | 33815 ft | 506 kts | 6° |
| 2026-05-06 20:04 | 51.61197 | 9.80915 | 33814 ft | 501 kts | 1° |
| 2026-05-06 20:04 | 51.64653 | 9.80890 | 33375 ft | 508 kts | 353° |
| 2026-05-06 20:04 | 51.67991 | 9.80220 | 32722 ft | 495 kts | 349° |
| 2026-05-06 20:05 | 51.71347 | 9.79547 | 32174 ft | 497 kts | 352° |
| 2026-05-06 20:05 | 51.74833 | 9.78998 | 31604 ft | 512 kts | 353° |
| 2026-05-06 20:05 | 51.78343 | 9.78514 | 30944 ft | 512 kts | 353° |
| 2026-05-06 20:05 | 51.81880 | 9.78065 | 30191 ft | 508 kts | 354° |
| 2026-05-06 20:06 | 51.85329 | 9.77652 | 29451 ft | 502 kts | 354° |
| 2026-05-06 20:06 | 51.88729 | 9.77260 | 28716 ft | 496 kts | 354° |
| 2026-05-06 20:06 | 51.92108 | 9.76878 | 27988 ft | 489 kts | 354° |
| 2026-05-06 20:06 | 51.95454 | 9.76507 | 27282 ft | 483 kts | 354° |
| 2026-05-06 20:07 | 51.98812 | 9.76137 | 26572 ft | 476 kts | 354° |
| 2026-05-06 20:07 | 52.02057 | 9.75783 | 25902 ft | 469 kts | 354° |
| 2026-05-06 20:07 | 52.05281 | 9.75431 | 25191 ft | 458 kts | 354° |
| 2026-05-06 20:07 | 52.08238 | 9.75112 | 24542 ft | 432 kts | 354° |
| 2026-05-06 20:08 | 52.11154 | 9.74794 | 24095 ft | 416 kts | 354° |
| 2026-05-06 20:08 | 52.14026 | 9.74479 | 23589 ft | 411 kts | 354° |
| 2026-05-06 20:08 | 52.16837 | 9.74171 | 23108 ft | 411 kts | 354° |
| 2026-05-06 20:08 | 52.19499 | 9.73826 | 22651 ft | 409 kts | 350° |
| 2026-05-06 20:09 | 52.22327 | 9.72907 | 22177 ft | 403 kts | 344° |
| 2026-05-06 20:09 | 52.24958 | 9.71862 | 21714 ft | 400 kts | 344° |
| 2026-05-06 20:09 | 52.27597 | 9.70807 | 21257 ft | 396 kts | 344° |
| 2026-05-06 20:09 | 52.30197 | 9.69762 | 20804 ft | 393 kts | 344° |
| 2026-05-06 20:10 | 52.32816 | 9.68700 | 20351 ft | 391 kts | 344° |
| 2026-05-06 20:10 | 52.35389 | 9.67650 | 19905 ft | 388 kts | 344° |
| 2026-05-06 20:10 | 52.37984 | 9.66593 | 19457 ft | 385 kts | 344° |
| 2026-05-06 20:10 | 52.40521 | 9.65563 | 19019 ft | 382 kts | 344° |
| 2026-05-06 20:11 | 52.43089 | 9.64512 | 18581 ft | 379 kts | 344° |
| 2026-05-06 20:11 | 52.45646 | 9.63461 | 18150 ft | 377 kts | 344° |
| 2026-05-06 20:11 | 52.48208 | 9.62409 | 17725 ft | 375 kts | 344° |
| 2026-05-06 20:11 | 52.50682 | 9.61392 | 17311 ft | 373 kts | 344° |
| 2026-05-06 20:12 | 52.53202 | 9.60349 | 16888 ft | 371 kts | 344° |
| 2026-05-06 20:12 | 52.55704 | 9.59309 | 16471 ft | 369 kts | 344° |
| 2026-05-06 20:12 | 52.58197 | 9.58378 | 16032 ft | 367 kts | 352° |
| 2026-05-06 20:12 | 52.60712 | 9.58406 | 15604 ft | 367 kts | 6° |
| 2026-05-06 20:13 | 52.63215 | 9.58891 | 15159 ft | 366 kts | 4° |
| 2026-05-06 20:13 | 52.65756 | 9.59152 | 14703 ft | 363 kts | 1° |
| 2026-05-06 20:13 | 52.68282 | 9.59313 | 14261 ft | 360 kts | 0° |
| 2026-05-06 20:13 | 52.70754 | 9.59407 | 13822 ft | 358 kts | 0° |
| 2026-05-06 20:14 | 52.73230 | 9.59466 | 13383 ft | 354 kts | 360° |
| 2026-05-06 20:14 | 52.75674 | 9.59505 | 12959 ft | 349 kts | 360° |
| 2026-05-06 20:14 | 52.78088 | 9.59532 | 12532 ft | 342 kts | 0° |
| 2026-05-06 20:14 | 52.80453 | 9.59554 | 12129 ft | 341 kts | 0° |
| 2026-05-06 20:15 | 52.82813 | 9.59571 | 11736 ft | 342 kts | 0° |
| 2026-05-06 20:15 | 52.85198 | 9.59586 | 11330 ft | 339 kts | 1° |
| 2026-05-06 20:15 | 52.87526 | 9.59602 | 10919 ft | 334 kts | 1° |
| 2026-05-06 20:15 | 52.89841 | 9.59615 | 10521 ft | 330 kts | 1° |
| 2026-05-06 20:16 | 52.92136 | 9.59629 | 10127 ft | 328 kts | 1° |
| 2026-05-06 20:16 | 52.94415 | 9.59643 | 9739 ft | 327 kts | 1° |
| 2026-05-06 20:16 | 52.96655 | 9.59655 | 9355 ft | 324 kts | 2° |
| 2026-05-06 20:16 | 52.98872 | 9.59669 | 8882 ft | 311 kts | 2° |
| 2026-05-06 20:17 | 53.00943 | 9.59678 | 8488 ft | 288 kts | 2° |
| 2026-05-06 20:17 | 53.02876 | 9.59689 | 8256 ft | 272 kts | 2° |
| 2026-05-06 20:17 | 53.04776 | 9.59701 | 7992 ft | 270 kts | 2° |
| 2026-05-06 20:17 | 53.06630 | 9.59713 | 7757 ft | 272 kts | 2° |
| 2026-05-06 20:18 | 53.08538 | 9.59725 | 7511 ft | 271 kts | 3° |
| 2026-05-06 20:18 | 53.10313 | 9.59736 | 7263 ft | 271 kts | 2° |
| 2026-05-06 20:18 | 53.12247 | 9.59747 | 6965 ft | 270 kts | 3° |
| 2026-05-06 20:18 | 53.14127 | 9.59759 | 6581 ft | 270 kts | 3° |
| 2026-05-06 20:19 | 53.15998 | 9.59769 | 6196 ft | 266 kts | 3° |
| 2026-05-06 20:19 | 53.17836 | 9.59780 | 5808 ft | 263 kts | 3° |
| 2026-05-06 20:19 | 53.19661 | 9.59791 | 5419 ft | 261 kts | 3° |
| 2026-05-06 20:19 | 53.21370 | 9.59801 | 5062 ft | 260 kts | 3° |
| 2026-05-06 20:20 | 53.23175 | 9.59811 | 4875 ft | 250 kts | 3° |
| 2026-05-06 20:20 | 53.24860 | 9.59819 | 4876 ft | 234 kts | 3° |
| 2026-05-06 20:20 | 53.26448 | 9.59828 | 4886 ft | 225 kts | 4° |
| 2026-05-06 20:20 | 53.27987 | 9.59837 | 4886 ft | 216 kts | 4° |
| 2026-05-06 20:21 | 53.29473 | 9.59847 | 4896 ft | 215 kts | 4° |
| 2026-05-06 20:21 | 53.30967 | 9.59857 | 4936 ft | 215 kts | 4° |
| 2026-05-06 20:21 | 53.32471 | 9.59867 | 4894 ft | 216 kts | 4° |
| 2026-05-06 20:21 | 53.33938 | 9.59925 | 4892 ft | 213 kts | 12° |
| 2026-05-06 20:22 | 53.35342 | 9.60630 | 4828 ft | 215 kts | 24° |
| 2026-05-06 20:22 | 53.36717 | 9.61561 | 4596 ft | 213 kts | 24° |
| 2026-05-06 20:22 | 53.38078 | 9.62485 | 4350 ft | 209 kts | 24° |
| 2026-05-06 20:22 | 53.39415 | 9.63392 | 4038 ft | 209 kts | 24° |
| 2026-05-06 20:23 | 53.40774 | 9.64319 | 3585 ft | 214 kts | 24° |
| 2026-05-06 20:23 | 53.42141 | 9.65255 | 3047 ft | 212 kts | 24° |
| 2026-05-06 20:23 | 53.43440 | 9.66137 | 3002 ft | 190 kts | 24° |
| 2026-05-06 20:23 | 53.44617 | 9.66933 | 2988 ft | 187 kts | 24° |
| 2026-05-06 20:24 | 53.45776 | 9.67743 | 2960 ft | 176 kts | 32° |
| 2026-05-06 20:24 | 53.46624 | 9.69088 | 2779 ft | 168 kts | 52° |
| 2026-05-06 20:24 | 53.47371 | 9.70647 | 2314 ft | 176 kts | 51° |
| 2026-05-06 20:24 | 53.48129 | 9.72196 | 1813 ft | 172 kts | 51° |
| 2026-05-06 20:25 | 53.48844 | 9.73689 | 1282 ft | 168 kts | 52° |
| 2026-05-06 20:25 | 53.49516 | 9.75095 | 1114 ft | 141 kts | 52° |
| 2026-05-06 20:25 | 53.50080 | 9.76281 | 922 ft | 124 kts | 51° |
| 2026-05-06 20:25 | 53.50601 | 9.77376 | 768 ft | 124 kts | 52° |
| 2026-05-06 20:26 | 53.51141 | 9.78509 | 619 ft | 127 kts | 51° |
| 2026-05-06 20:26 | 53.51642 | 9.79534 | 1006 ft | 113 kts | 51° |
| 2026-05-06 20:26 | 53.52111 | 9.80527 | 1807 ft | 115 kts | 53° |
| 2026-05-06 20:26 | 53.52555 | 9.81393 | 2669 ft | 110 kts | 50° |
| 2026-05-06 20:27 | 53.53080 | 9.82407 | 3353 ft | 125 kts | 52° |
| 2026-05-06 20:27 | 53.53221 | 9.83846 | 4046 ft | 146 kts | 103° |
| 2026-05-06 20:27 | 53.52438 | 9.85302 | 4340 ft | 203 kts | 148° |
| 2026-05-06 20:27 | 53.50913 | 9.85734 | 4181 ft | 244 kts | 184° |
| 2026-05-06 20:28 | 53.49175 | 9.85385 | 3885 ft | 253 kts | 184° |
| 2026-05-06 20:28 | 53.47409 | 9.85058 | 3868 ft | 251 kts | 184° |
| 2026-05-06 20:28 | 53.45879 | 9.84752 | 4862 ft | 199 kts | 184° |
| 2026-05-06 20:28 | 53.44597 | 9.84474 | 5559 ft | 193 kts | 184° |
| 2026-05-06 20:29 | 53.43258 | 9.84187 | 5988 ft | 207 kts | 186° |
| 2026-05-06 20:29 | 53.41867 | 9.83142 | 5530 ft | 224 kts | 224° |
| 2026-05-06 20:29 | 53.41161 | 9.80855 | 5109 ft | 225 kts | 272° |
| 2026-05-06 20:29 | 53.41523 | 9.78371 | 4700 ft | 222 kts | 310° |
| 2026-05-06 20:30 | 53.42601 | 9.76546 | 4346 ft | 218 kts | 326° |
| 2026-05-06 20:30 | 53.44892 | 9.73493 | 4286 ft | 203 kts | 325° |
| 2026-05-06 20:30 | 53.45982 | 9.71998 | 4097 ft | 205 kts | 326° |
| 2026-05-06 20:31 | 53.47192 | 9.70841 | 3881 ft | 192 kts | 348° |
| 2026-05-06 20:31 | 53.48461 | 9.71110 | 3667 ft | 186 kts | 37° |
| 2026-05-06 20:31 | 53.49226 | 9.72841 | 3426 ft | 192 kts | 63° |
| 2026-05-06 20:31 | 53.49788 | 9.74736 | 3156 ft | 187 kts | 59° |
| 2026-05-06 20:32 | 53.50576 | 9.76269 | 3105 ft | 171 kts | 40° |
| 2026-05-06 20:32 | 53.51581 | 9.77499 | 2960 ft | 188 kts | 36° |
| 2026-05-06 20:32 | 53.52668 | 9.78790 | 2807 ft | 193 kts | 38° |
| 2026-05-06 20:32 | 53.53662 | 9.80253 | 2607 ft | 191 kts | 46° |
| 2026-05-06 20:33 | 53.54536 | 9.81883 | 2310 ft | 188 kts | 50° |
| 2026-05-06 20:33 | 53.55355 | 9.83502 | 2052 ft | 181 kts | 50° |
| 2026-05-06 20:33 | 53.56132 | 9.85035 | 1805 ft | 173 kts | 50° |
| 2026-05-06 20:33 | 53.56834 | 9.86417 | 1791 ft | 146 kts | 50° |
| 2026-05-06 20:34 | 53.57467 | 9.87640 | 1482 ft | 136 kts | 50° |
| 2026-05-06 20:34 | 53.58050 | 9.88796 | 1230 ft | 126 kts | 51° |
| 2026-05-06 20:34 | 53.58598 | 9.89901 | 1028 ft | 126 kts | 51° |
| 2026-05-06 20:34 | 53.59168 | 9.91040 | 892 ft | 132 kts | 51° |
| 2026-05-06 20:35 | 53.59755 | 9.92210 | 741 ft | 132 kts | 50° |
| 2026-05-06 20:35 | 53.60331 | 9.93371 | 573 ft | 131 kts | 50° |
| 2026-05-06 20:35 | 53.60912 | 9.94541 | 398 ft | 132 kts | 50° |
| 2026-05-06 20:35 | 53.61485 | 9.95697 | 227 ft | 134 kts | 50° |
| 2026-05-06 20:36 | 53.62060 | 9.96850 | 73 ft | 136 kts | 50° |
| 2026-05-06 20:36 | 53.62633 | 9.98007 | 44 ft | 112 kts | 51° |
| 2026-05-06 20:36 | 53.63014 | 9.98781 | 46 ft | 66 kts | 49° |
| 2026-05-06 20:36 | 53.63226 | 9.99210 | 47 ft | 26 kts | 51° |
| 2026-05-06 20:37 | 53.63289 | 9.99444 | 48 ft | 22 kts | 86° |
| 2026-05-06 20:37 | 53.63280 | 9.99620 | 48 ft | 8 kts | 99° |
| 2026-05-06 20:37 | 53.63276 | 9.99659 | 48 ft | 0 kts | 99° |
| 2026-05-06 20:38 | 53.63273 | 9.99686 | 49 ft | 4 kts | 97° |
| 2026-05-06 20:38 | 53.63277 | 9.99746 | 49 ft | 7 kts | 68° |
| 2026-05-06 20:39 | 53.63321 | 9.99849 | 49 ft | 13 kts | 51° |
| 2026-05-06 20:39 | 53.63372 | 9.99954 | 50 ft | 10 kts | 50° |
| 2026-05-06 20:39 | 53.63418 | 10.00046 | 51 ft | 9 kts | 52° |
| 2026-05-06 20:39 | 53.63422 | 10.00143 | 52 ft | 8 kts | 111° |
| 2026-05-06 20:40 | 53.63410 | 10.00235 | 51 ft | 8 kts | 91° |
| 2026-05-06 20:40 | 53.63411 | 10.00298 | 52 ft | 3 kts | 87° |
| 2026-05-06 20:40 | 53.63412 | 10.00319 | 52 ft | 0 kts | 85° |
| 2026-05-06 20:40 | 53.63412 | 10.00323 | 52 ft | 0 kts | 85° |